createdAt,value
2018-01-10T00:00:41.902Z,90.75
2018-01-10T00:01:41.902Z,90.28
2018-01-10T00:02:41.902Z,89.90
2018-01-10T00:03:41.891Z,90.28
2018-01-10T00:04:41.888Z,89.61
2018-01-10T00:05:41.890Z,90.28
2018-01-10T00:06:41.965Z,90.19
2018-01-10T00:07:42.088Z,90.19
2018-01-10T00:08:41.912Z,90.28
2018-01-10T00:09:41.902Z,90.75
2018-01-10T00:10:41.869Z,90.56
2018-01-10T00:11:41.861Z,90.56
2018-01-10T00:12:41.876Z,90.66
2018-01-10T00:13:41.877Z,90.00
2018-01-10T00:14:41.852Z,89.71
2018-01-10T00:15:41.853Z,89.61
2018-01-10T00:16:41.838Z,90.09
2018-01-10T00:17:41.866Z,90.75
2018-01-10T00:18:41.854Z,90.75
2018-01-10T00:19:41.836Z,90.28
2018-01-10T00:20:41.917Z,90.28
2018-01-10T00:21:41.817Z,90.37
2018-01-10T00:22:41.809Z,89.80
2018-01-10T00:23:41.880Z,89.71
2018-01-10T00:24:41.797Z,89.42
2018-01-10T00:27:35.427Z,89.57
2018-01-10T00:28:35.443Z,89.80
2018-01-10T00:30:38.881Z,89.90
2018-01-10T00:31:38.884Z,89.76
2018-01-10T00:33:36.894Z,89.57
2018-01-10T00:34:36.793Z,89.76
2018-01-10T00:36:30.151Z,89.67
2018-01-10T00:37:30.105Z,89.57
2018-01-10T00:39:24.499Z,90.23
2018-01-10T00:40:24.493Z,90.23
2018-01-10T00:42:18.996Z,90.14
2018-01-10T00:43:18.983Z,89.86
2018-01-10T00:45:12.198Z,90.05
2018-01-10T00:46:12.175Z,90.05
2018-01-10T00:48:05.861Z,90.05
2018-01-10T00:49:05.938Z,90.33
2018-01-10T00:51:00.371Z,90.42
2018-01-10T00:52:00.519Z,90.33
2018-01-10T00:53:00.334Z,90.42
2018-01-10T00:54:00.344Z,90.66
2018-01-10T00:55:08.983Z,91.42
2018-01-10T00:56:54.719Z,91.89
2018-01-10T00:57:54.718Z,91.71
2018-01-10T00:59:48.631Z,92.85
2018-01-10T01:00:48.072Z,92.56
2018-01-10T01:02:46.022Z,92.47
2018-01-10T01:03:45.957Z,92.28
2018-01-10T01:05:42.121Z,92.18
2018-01-10T01:06:42.027Z,91.99
2018-01-10T01:08:39.952Z,91.99
2018-01-10T01:09:39.947Z,92.28
2018-01-10T01:11:33.316Z,91.80
2018-01-10T01:12:33.303Z,91.99
2018-01-10T01:14:39.253Z,92.28
2018-01-10T01:15:39.212Z,92.09
2018-01-10T01:17:42.278Z,92.85
2018-01-10T01:18:42.068Z,92.56
2018-01-10T01:20:42.678Z,92.56
2018-01-10T01:21:42.754Z,92.85
2018-01-10T01:23:38.576Z,92.56
2018-01-10T01:24:38.553Z,92.47
2018-01-10T01:25:38.520Z,92.28
2018-01-10T01:26:38.473Z,92.28
2018-01-10T01:27:38.477Z,92.37
2018-01-10T01:28:38.465Z,92.37
2018-01-10T01:29:38.468Z,92.56
2018-01-10T01:30:38.464Z,92.28
2018-01-10T01:31:38.454Z,92.28
2018-01-10T01:32:38.446Z,92.37
2018-01-10T01:33:38.440Z,93.13
2018-01-10T01:34:38.457Z,92.85
2018-01-10T01:35:38.438Z,92.85
2018-01-10T01:36:38.450Z,92.56
2018-01-10T01:37:38.417Z,93.04
2018-01-10T01:38:38.417Z,92.85
2018-01-10T01:39:38.418Z,92.94
2018-01-10T01:40:38.421Z,93.51
2018-01-10T01:41:38.417Z,93.23
2018-01-10T01:42:38.402Z,93.60
2018-01-10T01:43:38.399Z,92.85
2018-01-10T01:44:38.411Z,92.37
2018-01-10T01:45:38.387Z,92.66
2018-01-10T01:46:38.393Z,92.85
2018-01-10T01:47:38.394Z,92.47
2018-01-10T01:48:38.371Z,92.47
2018-01-10T01:49:38.362Z,92.66
2018-01-10T01:50:38.350Z,92.47
2018-01-10T01:51:38.365Z,92.28
2018-01-10T01:52:38.355Z,92.37
2018-01-10T01:53:38.359Z,92.47
2018-01-10T01:54:38.333Z,92.14
2018-01-10T01:55:38.330Z,92.85
2018-01-10T01:56:38.328Z,93.23
2018-01-10T01:57:38.316Z,92.75
2018-01-10T01:58:38.322Z,92.47
2018-01-10T01:59:38.306Z,92.66
2018-01-10T02:00:38.329Z,92.85
2018-01-10T02:01:38.317Z,92.56
2018-01-10T02:02:38.324Z,92.47
2018-01-10T02:03:38.289Z,92.47
2018-01-10T02:04:38.285Z,92.47
2018-01-10T02:05:38.279Z,92.47
2018-01-10T02:06:38.289Z,92.37
2018-01-10T02:07:38.284Z,93.04
2018-01-10T02:08:38.270Z,93.13
2018-01-10T02:09:38.267Z,92.47
2018-01-10T02:10:38.248Z,92.28
2018-01-10T02:11:38.252Z,92.75
2018-01-10T02:12:38.237Z,92.75
2018-01-10T02:13:38.240Z,92.85
2018-01-10T02:14:38.227Z,91.89
2018-01-10T02:15:38.222Z,92.09
2018-01-10T02:16:38.218Z,91.71
2018-01-10T02:17:38.226Z,91.71
2018-01-10T02:18:38.233Z,91.71
2018-01-10T02:19:38.215Z,91.71
2018-01-10T02:20:38.206Z,91.99
2018-01-10T02:21:38.185Z,92.14
2018-01-10T02:22:38.188Z,92.09
2018-01-10T02:23:38.180Z,92.47
2018-01-10T02:24:38.204Z,92.52
2018-01-10T02:25:38.169Z,92.33
2018-01-10T02:26:38.163Z,92.56
2018-01-10T02:27:38.187Z,92.23
2018-01-10T02:28:38.156Z,93.18
2018-01-10T02:29:38.157Z,92.71
2018-01-10T02:30:38.140Z,92.80
2018-01-10T02:31:38.140Z,92.99
2018-01-10T02:32:38.152Z,92.33
2018-01-10T02:33:38.158Z,92.42
2018-01-10T02:34:38.139Z,92.04
2018-01-10T02:35:38.115Z,91.94
2018-01-10T02:36:38.108Z,92.14
2018-01-10T02:37:38.106Z,92.09
2018-01-10T02:38:38.101Z,91.99
2018-01-10T02:39:38.103Z,91.85
2018-01-10T02:40:38.091Z,92.14
2018-01-10T02:41:38.123Z,92.04
2018-01-10T02:42:38.077Z,92.14
2018-01-10T02:43:38.582Z,92.52
2018-01-10T02:44:38.071Z,92.42
2018-01-10T02:45:38.069Z,92.61
2018-01-10T02:46:38.057Z,92.52
2018-01-10T02:47:56.865Z,92.71
2018-01-10T02:48:38.187Z,92.61
2018-01-10T02:49:45.735Z,92.14
2018-01-10T02:51:33.591Z,91.85
2018-01-10T02:52:33.479Z,92.04
2018-01-10T02:54:31.182Z,92.04
2018-01-10T02:55:31.123Z,92.04
2018-01-10T02:57:25.728Z,92.14
2018-01-10T02:58:25.707Z,91.47
2018-01-10T03:00:40.668Z,91.19
2018-01-10T03:01:20.042Z,91.47
2018-01-10T03:03:14.419Z,91.28
2018-01-10T03:04:14.391Z,91.38
2018-01-10T03:06:07.749Z,91.09
2018-01-10T03:07:07.740Z,91.09
2018-01-10T03:09:02.325Z,91.56
2018-01-10T03:10:02.298Z,91.56
2018-01-10T03:11:02.335Z,91.28
2018-01-10T03:12:02.299Z,91.28
2018-01-10T03:13:02.346Z,91.19
2018-01-10T03:14:02.291Z,91.85
2018-01-10T03:15:02.269Z,92.04
2018-01-10T03:16:02.313Z,91.85
2018-01-10T03:17:02.273Z,92.04
2018-01-10T03:18:02.307Z,92.52
2018-01-10T03:19:02.257Z,93.08
2018-01-10T03:20:02.226Z,93.18
2018-01-10T03:21:02.291Z,92.61
2018-01-10T03:22:02.213Z,92.80
2018-01-10T03:23:02.219Z,92.42
2018-01-10T03:24:02.214Z,92.90
2018-01-10T03:25:02.219Z,93.18
2018-01-10T03:26:02.187Z,93.27
2018-01-10T03:27:02.207Z,93.08
2018-01-10T03:28:02.176Z,92.61
2018-01-10T03:29:02.177Z,92.42
2018-01-10T03:30:02.173Z,92.14
2018-01-10T03:31:02.163Z,92.80
2018-01-10T03:32:02.160Z,92.23
2018-01-10T03:33:02.202Z,92.80
2018-01-10T03:34:02.172Z,93.56
2018-01-10T03:35:02.179Z,92.90
2018-01-10T03:36:02.148Z,92.80
2018-01-10T03:37:02.120Z,92.61
2018-01-10T03:38:02.122Z,92.23
2018-01-10T03:39:02.113Z,92.80
2018-01-10T03:40:02.111Z,92.04
2018-01-10T03:41:02.120Z,92.23
2018-01-10T03:42:02.134Z,91.66
2018-01-10T03:43:02.088Z,92.04
2018-01-10T03:44:02.086Z,92.80
2018-01-10T03:45:02.093Z,92.42
2018-01-10T03:46:02.103Z,92.71
2018-01-10T03:47:02.064Z,92.61
2018-01-10T03:48:02.068Z,92.99
2018-01-10T03:49:02.052Z,93.18
2018-01-10T03:50:02.047Z,93.04
2018-01-10T03:51:02.035Z,93.13
2018-01-10T03:52:02.123Z,93.13
2018-01-10T03:53:02.066Z,92.99
2018-01-10T03:54:02.021Z,92.90
2018-01-10T03:55:02.026Z,92.57
2018-01-10T03:56:02.074Z,92.94
2018-01-10T03:57:02.025Z,92.94
2018-01-10T03:58:02.073Z,93.13
2018-01-10T03:59:02.057Z,93.56
2018-01-10T04:00:01.993Z,93.37
2018-01-10T04:01:01.975Z,93.27
2018-01-10T04:02:01.985Z,92.76
2018-01-10T04:03:01.963Z,92.57
2018-01-10T04:04:01.960Z,92.94
2018-01-10T04:05:02.025Z,92.94
2018-01-10T04:06:01.943Z,93.32
2018-01-10T04:07:01.984Z,93.51
2018-01-10T04:08:01.931Z,93.32
2018-01-10T04:09:01.928Z,94.23
2018-01-10T04:10:01.928Z,93.99
2018-01-10T04:11:01.933Z,93.27
2018-01-10T04:12:01.921Z,93.61
2018-01-10T04:13:01.897Z,92.85
2018-01-10T04:14:01.925Z,93.23
2018-01-10T04:15:01.886Z,92.94
2018-01-10T04:16:01.884Z,93.04
2018-01-10T04:17:01.875Z,92.85
2018-01-10T04:18:01.894Z,92.66
2018-01-10T04:19:01.865Z,92.94
2018-01-10T04:20:01.908Z,92.38
2018-01-10T04:21:01.863Z,92.57
2018-01-10T04:22:01.855Z,92.28
2018-01-10T04:23:01.839Z,92.18
2018-01-10T04:24:01.853Z,92.38
2018-01-10T04:25:01.825Z,92.28
2018-01-10T04:26:01.837Z,92.57
2018-01-10T04:27:01.820Z,92.76
2018-01-10T04:28:01.830Z,92.66
2018-01-10T04:29:01.800Z,92.85
2018-01-10T04:30:01.822Z,92.28
2018-01-10T04:31:01.785Z,93.04
2018-01-10T04:32:01.822Z,92.47
2018-01-10T04:33:01.794Z,93.13
2018-01-10T04:34:01.795Z,93.04
2018-01-10T04:35:01.848Z,92.94
2018-01-10T04:36:01.783Z,92.85
2018-01-10T04:37:01.783Z,92.76
2018-01-10T04:38:01.771Z,92.76
2018-01-10T04:39:01.733Z,92.94
2018-01-10T04:40:01.725Z,93.04
2018-01-10T04:41:01.726Z,93.04
2018-01-10T04:42:01.721Z,92.85
2018-01-10T04:43:01.960Z,93.13
2018-01-10T04:44:01.708Z,92.18
2018-01-10T04:45:01.694Z,92.57
2018-01-10T04:46:01.687Z,92.57
2018-01-10T04:47:01.714Z,92.09
2018-01-10T04:48:01.697Z,92.38
2018-01-10T04:49:01.862Z,92.57
2018-01-10T04:50:01.660Z,92.47
2018-01-10T04:51:01.797Z,92.47
2018-01-10T04:52:01.687Z,92.38
2018-01-10T04:53:01.654Z,92.28
2018-01-10T04:54:01.691Z,92.47
2018-01-10T04:55:01.709Z,92.38
2018-01-10T04:56:01.713Z,92.47
2018-01-10T04:57:01.752Z,92.38
2018-01-10T04:58:12.717Z,92.38
2018-01-10T04:59:57.513Z,92.52
2018-01-10T05:00:57.605Z,92.80
2018-01-10T05:01:57.525Z,91.94
2018-01-10T05:02:57.614Z,91.94
2018-01-10T05:03:57.498Z,92.04
2018-01-10T05:04:57.509Z,92.04
2018-01-10T05:05:57.470Z,92.04
2018-01-10T05:06:57.506Z,91.85
2018-01-10T05:07:57.466Z,91.56
2018-01-10T05:08:57.479Z,91.66
2018-01-10T05:09:57.487Z,91.94
2018-01-10T05:10:57.445Z,91.85
2018-01-10T05:11:57.452Z,91.28
2018-01-10T05:12:57.424Z,91.28
2018-01-10T05:13:57.418Z,91.56
2018-01-10T05:14:57.422Z,91.28
2018-01-10T05:15:57.434Z,90.81
2018-01-10T05:16:57.404Z,90.71
2018-01-10T05:17:57.433Z,90.71
2018-01-10T05:19:14.116Z,91.19
2018-01-10T05:21:10.840Z,91.19
2018-01-10T05:22:10.858Z,91.75
2018-01-10T05:23:10.768Z,91.66
2018-01-10T05:24:29.620Z,91.28
2018-01-10T05:26:17.647Z,91.28
2018-01-10T05:27:17.549Z,91.19
2018-01-10T05:29:15.422Z,91.85
2018-01-10T05:30:15.630Z,91.94
2018-01-10T05:32:28.882Z,91.75
2018-01-10T05:33:28.417Z,91.19
2018-01-10T05:35:31.722Z,91.28
2018-01-10T05:36:31.732Z,91.38
2018-01-10T05:38:26.168Z,91.28
2018-01-10T05:39:26.063Z,91.75
2018-01-10T05:41:19.422Z,91.75
2018-01-10T05:42:19.453Z,91.56
2018-01-10T05:44:25.447Z,91.56
2018-01-10T05:45:25.321Z,91.47
2018-01-10T05:47:21.385Z,91.66
2018-01-10T05:48:21.162Z,92.04
2018-01-10T05:50:14.508Z,92.14
2018-01-10T05:51:14.522Z,92.23
2018-01-10T05:53:07.941Z,91.85
2018-01-10T05:54:07.865Z,92.14
2018-01-10T05:56:01.335Z,92.04
2018-01-10T05:57:01.206Z,92.14
2018-01-10T05:58:55.689Z,92.04
2018-01-10T05:59:55.573Z,91.75
2018-01-10T06:02:01.761Z,92.80
2018-01-10T06:03:01.616Z,92.42
2018-01-10T06:05:11.884Z,92.52
2018-01-10T06:06:11.881Z,92.42
2018-01-10T06:08:24.867Z,92.61
2018-01-10T06:09:24.725Z,92.52
2018-01-10T06:11:25.120Z,92.14
2018-01-10T06:12:25.103Z,92.42
2018-01-10T06:14:18.569Z,92.42
2018-01-10T06:15:20.006Z,92.52
2018-01-10T06:17:18.958Z,92.33
2018-01-10T06:18:18.924Z,92.71
2018-01-10T06:20:12.344Z,92.52
2018-01-10T06:21:12.222Z,92.61
2018-01-10T06:23:07.724Z,92.80
2018-01-10T06:24:07.572Z,92.80
2018-01-10T06:26:01.505Z,92.04
2018-01-10T06:27:00.936Z,91.94
2018-01-10T06:28:00.979Z,91.94
2018-01-10T06:29:00.894Z,92.14
2018-01-10T06:30:00.900Z,92.04
2018-01-10T06:31:01.014Z,92.14
2018-01-10T06:32:08.649Z,91.94
2018-01-10T06:34:04.413Z,92.04
2018-01-10T06:35:05.866Z,92.71
2018-01-10T06:36:04.300Z,92.61
2018-01-10T06:37:04.338Z,92.33
2018-01-10T06:38:04.296Z,92.33
2018-01-10T06:39:04.843Z,92.52
2018-01-10T06:40:04.294Z,92.23
2018-01-10T06:41:04.360Z,92.42
2018-01-10T06:42:04.256Z,92.33
2018-01-10T06:43:04.321Z,92.42
2018-01-10T06:44:04.253Z,93.18
2018-01-10T06:45:18.977Z,93.18
2018-01-10T06:47:07.445Z,92.23
2018-01-10T06:48:07.173Z,92.42
2018-01-10T06:50:01.567Z,92.71
2018-01-10T06:51:01.551Z,92.61
2018-01-10T06:53:01.996Z,92.42
2018-01-10T06:54:01.896Z,92.52
2018-01-10T06:55:01.902Z,92.23
2018-01-10T06:56:01.880Z,92.52
2018-01-10T06:57:01.875Z,92.23
2018-01-10T06:58:01.863Z,92.80
2018-01-10T06:59:01.859Z,92.90
2018-01-10T07:00:01.866Z,92.71
2018-01-10T07:01:01.934Z,92.42
2018-01-10T07:02:01.845Z,92.61
2018-01-10T07:03:01.843Z,92.61
2018-01-10T07:04:01.834Z,92.42
2018-01-10T07:05:01.841Z,92.52
2018-01-10T07:06:01.821Z,92.42
2018-01-10T07:07:01.809Z,92.23
2018-01-10T07:08:01.826Z,92.71
2018-01-10T07:09:01.804Z,92.61
2018-01-10T07:10:01.797Z,92.42
2018-01-10T07:11:01.803Z,92.71
2018-01-10T07:12:01.787Z,93.56
2018-01-10T07:13:01.785Z,92.80
2018-01-10T07:14:01.802Z,93.46
2018-01-10T07:15:01.765Z,92.99
2018-01-10T07:16:01.770Z,93.65
2018-01-10T07:17:01.750Z,93.37
2018-01-10T07:18:01.764Z,93.37
2018-01-10T07:19:10.104Z,93.18
2018-01-10T07:20:01.902Z,93.18
2018-01-10T07:21:01.933Z,93.13
2018-01-10T07:22:01.868Z,93.13
2018-01-10T07:23:01.759Z,92.75
2018-01-10T07:24:01.759Z,93.23
2018-01-10T07:25:01.715Z,93.60
2018-01-10T07:26:01.716Z,93.80
2018-01-10T07:27:01.704Z,93.70
2018-01-10T07:28:01.699Z,92.85
2018-01-10T07:29:01.688Z,92.66
2018-01-10T07:30:01.695Z,92.18
2018-01-10T07:31:01.684Z,92.85
2018-01-10T07:32:01.671Z,92.66
2018-01-10T07:33:01.666Z,92.85
2018-01-10T07:34:01.682Z,91.99
2018-01-10T07:35:01.655Z,92.56
2018-01-10T07:36:01.672Z,92.09
2018-01-10T07:37:01.652Z,91.61
2018-01-10T07:38:01.678Z,91.71
2018-01-10T07:39:01.634Z,92.56
2018-01-10T07:40:01.687Z,92.66
2018-01-10T07:41:01.641Z,92.09
2018-01-10T07:42:01.727Z,92.09
2018-01-10T07:43:01.612Z,92.28
2018-01-10T07:44:01.606Z,92.09
2018-01-10T07:45:01.611Z,91.89
2018-01-10T07:46:01.605Z,91.71
2018-01-10T07:47:01.614Z,91.71
2018-01-10T07:48:01.594Z,91.89
2018-01-10T07:49:01.629Z,92.85
2018-01-10T07:50:01.663Z,93.99
2018-01-10T07:51:01.568Z,92.94
2018-01-10T07:52:01.562Z,92.66
2018-01-10T07:53:01.564Z,92.66
2018-01-10T07:54:01.558Z,92.66
2018-01-10T07:55:01.548Z,93.13
2018-01-10T07:56:01.561Z,92.18
2018-01-10T07:57:01.546Z,93.13
2018-01-10T07:58:01.565Z,92.37
2018-01-10T07:59:01.529Z,92.56
2018-01-10T08:00:01.529Z,92.18
2018-01-10T08:01:01.529Z,91.99
2018-01-10T08:02:01.521Z,91.33
2018-01-10T08:03:01.515Z,91.89
2018-01-10T08:04:01.519Z,91.71
2018-01-10T08:05:01.491Z,91.99
2018-01-10T08:06:01.519Z,91.14
2018-01-10T08:07:01.493Z,91.04
2018-01-10T08:08:09.327Z,91.52
2018-01-10T08:09:54.978Z,90.66
2018-01-10T08:10:54.864Z,90.76
2018-01-10T08:12:49.818Z,90.76
2018-01-10T08:13:48.214Z,90.95
2018-01-10T08:14:48.206Z,91.42
2018-01-10T08:15:48.205Z,91.24
2018-01-10T08:16:48.219Z,90.66
2018-01-10T08:17:48.214Z,90.42
2018-01-10T08:18:48.203Z,90.80
2018-01-10T08:19:48.219Z,90.90
2018-01-10T08:20:48.176Z,90.61
2018-01-10T08:21:48.180Z,90.52
2018-01-10T08:22:48.172Z,90.80
2018-01-10T08:23:48.208Z,91.28
2018-01-10T08:24:48.145Z,90.61
2018-01-10T08:25:48.198Z,90.90
2018-01-10T08:26:48.149Z,90.90
2018-01-10T08:27:48.154Z,91.38
2018-01-10T08:28:48.130Z,91.66
2018-01-10T08:29:48.186Z,90.80
2018-01-10T08:30:48.127Z,90.42
2018-01-10T08:31:48.119Z,91.28
2018-01-10T08:32:48.150Z,91.28
2018-01-10T08:33:48.102Z,90.61
2018-01-10T08:34:48.139Z,90.05
2018-01-10T08:35:48.113Z,89.67
2018-01-10T08:36:48.093Z,88.81
2018-01-10T08:37:48.092Z,88.90
2018-01-10T08:38:48.145Z,89.67
2018-01-10T08:39:48.085Z,89.67
2018-01-10T08:40:48.072Z,88.62
2018-01-10T08:41:57.569Z,89.09
2018-01-10T08:43:43.047Z,88.90
2018-01-10T08:44:42.530Z,88.90
2018-01-10T08:46:35.837Z,89.71
2018-01-10T08:47:35.820Z,89.04
2018-01-10T08:49:30.389Z,89.71
2018-01-10T08:50:30.504Z,90.19
2018-01-10T08:52:25.790Z,88.15
2018-01-10T08:53:24.743Z,88.34
2018-01-10T08:55:18.102Z,88.76
2018-01-10T08:56:18.072Z,89.80
2018-01-10T08:58:11.532Z,88.76
2018-01-10T08:59:11.444Z,88.57
2018-01-10T09:01:04.836Z,88.09
2018-01-10T09:02:04.795Z,88.24
2018-01-10T09:03:58.184Z,87.90
2018-01-10T09:04:58.144Z,87.71
2018-01-10T09:06:52.592Z,87.81
2018-01-10T09:07:52.538Z,87.90
2018-01-10T09:09:46.928Z,88.28
2018-01-10T09:10:46.914Z,88.38
2018-01-10T09:12:40.334Z,88.95
2018-01-10T09:13:40.308Z,89.14
2018-01-10T09:14:40.271Z,90.00
2018-01-10T09:15:40.274Z,89.61
2018-01-10T09:16:40.287Z,88.19
2018-01-10T09:17:40.304Z,88.76
2018-01-10T09:18:40.269Z,89.42
2018-01-10T09:19:40.279Z,88.09
2018-01-10T09:20:40.241Z,88.09
2018-01-10T09:21:40.238Z,87.81
2018-01-10T09:22:40.233Z,88.09
2018-01-10T09:23:40.237Z,87.14
2018-01-10T09:24:40.243Z,86.86
2018-01-10T09:25:40.253Z,87.38
2018-01-10T09:26:40.228Z,86.61
2018-01-10T09:27:40.213Z,86.99
2018-01-10T09:28:40.228Z,86.24
2018-01-10T09:29:40.209Z,86.24
2018-01-10T09:30:40.234Z,86.33
2018-01-10T09:31:40.198Z,86.43
2018-01-10T09:32:40.209Z,85.95
2018-01-10T09:33:40.185Z,86.33
2018-01-10T09:34:40.187Z,86.90
2018-01-10T09:35:40.254Z,86.90
2018-01-10T09:36:40.229Z,86.43
2018-01-10T09:37:40.204Z,85.47
2018-01-10T09:38:40.167Z,85.66
2018-01-10T09:39:40.176Z,85.33
2018-01-10T09:40:40.180Z,84.95
2018-01-10T09:41:40.151Z,84.38
2018-01-10T09:42:40.205Z,84.38
2018-01-10T09:43:40.159Z,83.71
2018-01-10T09:44:40.153Z,83.90
2018-01-10T09:45:40.171Z,84.95
2018-01-10T09:46:40.149Z,84.76
2018-01-10T09:47:40.136Z,85.42
2018-01-10T09:48:40.129Z,85.52
2018-01-10T09:49:40.175Z,85.61
2018-01-10T09:50:40.132Z,86.18
2018-01-10T09:51:40.140Z,87.04
2018-01-10T09:52:40.126Z,84.76
2018-01-10T09:53:40.122Z,84.28
2018-01-10T09:54:40.113Z,84.19
2018-01-10T09:55:40.144Z,84.19
2018-01-10T09:56:40.101Z,84.47
2018-01-10T09:57:40.122Z,84.19
2018-01-10T09:58:40.104Z,84.19
2018-01-10T09:59:40.133Z,84.38
2018-01-10T10:00:40.089Z,84.09
2018-01-10T10:01:40.100Z,84.19
2018-01-10T10:02:40.088Z,84.47
2018-01-10T10:03:40.086Z,84.56
2018-01-10T10:04:40.080Z,84.38
2018-01-10T10:05:40.073Z,84.28
2018-01-10T10:06:40.081Z,85.14
2018-01-10T10:07:40.087Z,84.47
2018-01-10T10:08:40.061Z,84.47
2018-01-10T10:09:40.057Z,83.90
2018-01-10T10:10:40.054Z,83.90
2018-01-10T10:11:40.074Z,83.81
2018-01-10T10:12:40.049Z,83.81
2018-01-10T10:13:40.052Z,83.81
2018-01-10T10:14:40.045Z,83.81
2018-01-10T10:15:40.045Z,83.81
2018-01-10T10:16:40.038Z,84.00
2018-01-10T10:17:48.695Z,83.52
2018-01-10T10:19:33.468Z,83.18
2018-01-10T10:20:33.417Z,83.18
2018-01-10T10:22:28.406Z,83.47
2018-01-10T10:23:26.780Z,83.47
2018-01-10T10:24:26.782Z,83.47
2018-01-10T10:25:26.835Z,82.90
2018-01-10T10:26:29.317Z,83.28
2018-01-10T10:27:26.779Z,83.47
2018-01-10T10:28:26.760Z,83.65
2018-01-10T10:29:26.781Z,83.28
2018-01-10T10:30:26.817Z,83.14
2018-01-10T10:31:26.785Z,83.04
2018-01-10T10:32:26.755Z,83.04
2018-01-10T10:33:26.743Z,83.09
2018-01-10T10:34:26.763Z,82.90
2018-01-10T10:35:26.743Z,82.61
2018-01-10T10:36:26.740Z,82.90
2018-01-10T10:37:26.751Z,83.94
2018-01-10T10:38:26.832Z,83.75
2018-01-10T10:39:26.727Z,83.28
2018-01-10T10:40:26.725Z,82.80
2018-01-10T10:41:26.727Z,82.70
2018-01-10T10:42:26.725Z,82.80
2018-01-10T10:43:26.717Z,82.99
2018-01-10T10:44:26.712Z,82.70
2018-01-10T10:45:26.733Z,82.90
2018-01-10T10:46:26.709Z,82.32
2018-01-10T10:47:26.705Z,82.23
2018-01-10T10:48:26.733Z,81.76
2018-01-10T10:49:26.697Z,81.95
2018-01-10T10:50:26.706Z,81.47
2018-01-10T10:51:26.699Z,81.47
2018-01-10T10:52:26.692Z,81.76
2018-01-10T10:53:26.684Z,81.56
2018-01-10T10:54:26.680Z,81.76
2018-01-10T10:55:26.698Z,81.32
2018-01-10T10:56:26.681Z,81.23
2018-01-10T10:57:26.688Z,81.13
2018-01-10T10:58:26.671Z,81.13
2018-01-10T10:59:34.331Z,81.41
2018-01-10T11:01:31.084Z,79.13
2018-01-10T11:02:31.054Z,78.94
2018-01-10T11:04:25.656Z,79.51
2018-01-10T11:05:25.597Z,79.80
2018-01-10T11:07:19.033Z,77.98
2018-01-10T11:08:19.011Z,78.17
2018-01-10T11:10:12.424Z,77.89
2018-01-10T11:11:12.378Z,77.13
2018-01-10T11:13:05.804Z,80.08
2018-01-10T11:14:05.782Z,79.89
2018-01-10T11:16:00.190Z,79.46
2018-01-10T11:17:00.132Z,77.93
2018-01-10T11:18:54.638Z,77.26
2018-01-10T11:19:54.486Z,76.21
2018-01-10T11:21:48.888Z,76.88
2018-01-10T11:22:48.861Z,79.36
2018-01-10T11:24:43.359Z,77.83
2018-01-10T11:25:43.243Z,77.74
2018-01-10T11:27:37.713Z,76.88
2018-01-10T11:28:37.618Z,76.12
2018-01-10T11:30:31.988Z,79.17
2018-01-10T11:31:31.988Z,76.79
2018-01-10T11:33:26.932Z,75.07
2018-01-10T11:34:25.358Z,74.88
2018-01-10T11:36:18.896Z,75.16
2018-01-10T11:37:18.891Z,74.88
2018-01-10T11:39:13.165Z,75.55
2018-01-10T11:40:13.111Z,74.79
2018-01-10T11:42:11.017Z,76.82
2018-01-10T11:43:11.011Z,76.88
2018-01-10T11:44:11.018Z,76.69
2018-01-10T11:45:11.070Z,75.26
2018-01-10T11:46:10.983Z,76.88
2018-01-10T11:47:11.011Z,75.84
2018-01-10T11:48:10.995Z,76.06
2018-01-10T11:49:10.972Z,77.97
2018-01-10T11:50:11.017Z,77.59
2018-01-10T11:51:10.996Z,77.30
2018-01-10T11:52:10.969Z,75.49
2018-01-10T11:53:10.964Z,74.06
2018-01-10T11:54:10.961Z,76.16
2018-01-10T11:55:10.984Z,75.68
2018-01-10T11:56:11.040Z,74.54
2018-01-10T11:57:11.002Z,74.16
2018-01-10T11:58:10.967Z,74.63
2018-01-10T11:59:10.961Z,73.39
2018-01-10T12:00:10.971Z,74.82
2018-01-10T12:01:10.953Z,74.73
2018-01-10T12:02:10.981Z,72.82
2018-01-10T12:03:10.958Z,74.16
2018-01-10T12:04:10.992Z,76.82
2018-01-10T12:05:10.976Z,74.44
2018-01-10T12:06:10.982Z,74.73
2018-01-10T12:07:18.843Z,77.01
2018-01-10T12:09:05.608Z,75.59
2018-01-10T12:10:05.682Z,75.43
2018-01-10T12:11:59.364Z,72.92
2018-01-10T12:12:58.988Z,73.01
2018-01-10T12:13:59.004Z,74.73
2018-01-10T12:14:58.964Z,73.96
2018-01-10T12:15:58.991Z,74.44
2018-01-10T12:16:58.933Z,73.62
2018-01-10T12:17:58.991Z,72.00
2018-01-10T12:18:58.932Z,74.01
2018-01-10T12:19:58.939Z,78.30
2018-01-10T12:20:58.955Z,73.52
2018-01-10T12:21:58.941Z,72.16
2018-01-10T12:22:58.924Z,70.53
2018-01-10T12:23:58.929Z,70.28
2018-01-10T12:24:58.935Z,69.90
2018-01-10T12:25:58.919Z,69.29
2018-01-10T12:26:58.929Z,69.48
2018-01-10T12:27:58.936Z,69.23
2018-01-10T12:28:58.944Z,70.57
2018-01-10T12:29:58.913Z,70.06
2018-01-10T12:30:58.914Z,69.68
2018-01-10T12:31:58.923Z,71.96
2018-01-10T12:32:58.917Z,70.86
2018-01-10T12:33:58.907Z,70.53
2018-01-10T12:34:58.910Z,69.58
2018-01-10T12:35:58.909Z,69.04
2018-01-10T12:36:58.919Z,70.76
2018-01-10T12:37:58.904Z,73.62
2018-01-10T12:38:58.922Z,75.05
2018-01-10T12:39:58.900Z,78.39
2018-01-10T12:40:58.968Z,73.72
2018-01-10T12:41:58.893Z,71.23
2018-01-10T12:42:58.929Z,71.43
2018-01-10T12:43:58.896Z,70.95
2018-01-10T12:44:58.902Z,69.90
2018-01-10T12:45:58.894Z,70.67
2018-01-10T12:46:58.892Z,72.00
2018-01-10T12:47:58.893Z,71.91
2018-01-10T12:48:58.914Z,69.81
2018-01-10T12:49:58.887Z,68.47
2018-01-10T12:50:58.882Z,68.09
2018-01-10T12:51:58.878Z,67.14
2018-01-10T12:52:58.969Z,67.61
2018-01-10T12:53:58.908Z,68.38
2018-01-10T12:54:58.929Z,67.14
2018-01-10T12:55:59.412Z,69.04
2018-01-10T12:56:58.888Z,72.09
2018-01-10T12:57:58.879Z,68.76
2018-01-10T12:58:58.910Z,67.23
2018-01-10T12:59:58.931Z,67.04
2018-01-10T13:00:58.879Z,66.15
2018-01-10T13:01:58.887Z,67.52
2018-01-10T13:02:58.875Z,69.43
2018-01-10T13:03:58.874Z,70.67
2018-01-10T13:04:58.891Z,68.38
2018-01-10T13:05:58.862Z,68.76
2018-01-10T13:06:58.874Z,70.38
2018-01-10T13:07:58.890Z,69.14
2018-01-10T13:08:58.889Z,71.04
2018-01-10T13:09:58.861Z,70.09
2018-01-10T13:10:58.938Z,68.38
2018-01-10T13:11:58.849Z,66.09
2018-01-10T13:12:59.494Z,65.99
2018-01-10T13:13:58.853Z,71.62
2018-01-10T13:14:58.844Z,71.81
2018-01-10T13:15:58.890Z,67.80
2018-01-10T13:16:58.891Z,67.42
2018-01-10T13:17:58.846Z,66.28
2018-01-10T13:18:58.838Z,67.33
2018-01-10T13:19:58.847Z,68.57
2018-01-10T13:20:58.877Z,69.48
2018-01-10T13:21:58.879Z,66.15
2018-01-10T13:22:58.838Z,65.89
2018-01-10T13:23:58.851Z,65.80
2018-01-10T13:25:11.291Z,65.58
2018-01-10T13:26:52.418Z,66.63
2018-01-10T13:27:52.339Z,65.86
2018-01-10T13:28:52.248Z,65.96
2018-01-10T13:29:52.293Z,65.39
2018-01-10T13:30:52.233Z,65.58
2018-01-10T13:31:52.209Z,66.44
2018-01-10T13:32:52.219Z,67.10
2018-01-10T13:33:52.198Z,67.20
2018-01-10T13:34:52.207Z,66.44
2018-01-10T13:35:52.249Z,66.82
2018-01-10T13:36:52.228Z,65.77
2018-01-10T13:37:52.274Z,65.67
2018-01-10T13:38:52.193Z,65.58
2018-01-10T13:39:52.185Z,66.24
2018-01-10T13:40:52.201Z,66.05
2018-01-10T13:41:52.261Z,65.48
2018-01-10T13:42:52.252Z,66.15
2018-01-10T13:43:52.204Z,66.63
2018-01-10T13:44:52.242Z,66.24
2018-01-10T13:45:52.190Z,66.44
2018-01-10T13:46:52.176Z,65.96
2018-01-10T13:47:52.214Z,65.48
2018-01-10T13:48:52.198Z,65.29
2018-01-10T13:49:52.172Z,66.15
2018-01-10T13:50:52.173Z,65.96
2018-01-10T13:51:52.181Z,65.29
2018-01-10T13:52:52.196Z,65.58
2018-01-10T13:53:52.168Z,65.39
2018-01-10T13:54:52.164Z,66.05
2018-01-10T13:55:52.163Z,65.96
2018-01-10T13:56:52.233Z,66.24
2018-01-10T13:57:52.158Z,66.24
2018-01-10T13:58:52.198Z,66.15
2018-01-10T13:59:52.173Z,66.53
2018-01-10T14:00:52.176Z,66.72
2018-01-10T14:01:52.149Z,67.10
2018-01-10T14:02:52.154Z,66.63
2018-01-10T14:03:52.170Z,66.82
2018-01-10T14:04:52.263Z,66.82
2018-01-10T14:05:53.770Z,67.10
2018-01-10T14:06:52.180Z,66.63
2018-01-10T14:07:52.226Z,66.91
2018-01-10T14:08:52.201Z,66.34
2018-01-10T14:09:52.135Z,66.34
2018-01-10T14:10:52.139Z,66.91
2018-01-10T14:11:52.136Z,66.97
2018-01-10T14:12:52.140Z,66.82
2018-01-10T14:13:52.166Z,66.97
2018-01-10T14:14:52.138Z,67.20